Time;durP1;ratioP1;P1;durP2;ratioP2;P2;SDS_P1;SDS_P2;PMS_P1;PMS_P2;Temp;Humidity;BMP_temperature;BMP_pressure;BME280_temperature;BME280_humidity;BME280_pressure;Samples;Min_cycle;Max_cycle;Signal;HPM_P1;HPM_P2
2020/12/12 00:00:22;;;;;;;49.80;28.00;;;;;;;1.64;83.91;99432.25;5030763;28;20183;-71
2020/12/12 00:02:49;;;;;;;42.30;26.03;;;;;;;1.46;84.57;99434.34;5030473;28;20194;-71
2020/12/12 00:05:14;;;;;;;52.10;27.73;;;;;;;1.48;84.53;99435.28;5020479;28;20423;-77
2020/12/12 00:07:40;;;;;;;52.47;29.20;;;;;;;1.57;84.33;99432.94;5039038;28;20425;-77
2020/12/12 00:10:05;;;;;;;49.17;27.50;;;;;;;1.54;83.87;99443.13;5038834;28;20209;-74
2020/12/12 00:12:31;;;;;;;49.90;26.07;;;;;;;1.54;84.08;99425.13;5039371;28;20175;-75
2020/12/12 00:14:57;;;;;;;57.87;31.67;;;;;;;1.67;83.68;99428.88;5031357;28;20204;-73
2020/12/12 00:17:22;;;;;;;48.43;27.57;;;;;;;1.54;84.21;99422.56;5038794;28;20180;-74
2020/12/12 00:19:47;;;;;;;52.90;28.60;;;;;;;1.54;83.84;99421.72;5031424;28;20511;-74
2020/12/12 00:22:13;;;;;;;55.40;28.70;;;;;;;1.56;84.63;99410.66;5018195;28;20560;-74
2020/12/12 00:24:38;;;;;;;46.33;26.97;;;;;;;1.48;83.93;99422.44;5018490;28;20219;-74
2020/12/12 00:27:04;;;;;;;53.53;29.17;;;;;;;1.68;83.60;99421.22;5018652;28;20193;-75
2020/12/12 00:29:29;;;;;;;40.37;23.47;;;;;;;1.55;83.85;99424.31;5019605;28;20322;-76
2020/12/12 00:31:59;;;;;;;48.53;28.20;;;;;;;1.64;84.08;99427.13;5031731;28;20272;-76
2020/12/12 00:34:25;;;;;;;49.20;28.40;;;;;;;1.69;83.67;99424.66;5038878;28;20464;-75
2020/12/12 00:36:50;;;;;;;49.60;27.53;;;;;;;1.60;83.53;99424.44;5039570;28;20427;-75
2020/12/12 00:39:20;;;;;;;49.00;29.40;;;;;;;1.63;83.83;99415.09;5038832;28;20464;-78
2020/12/12 00:41:45;;;;;;;51.10;29.13;;;;;;;1.42;84.21;99404.28;5038992;28;20185;-76
2020/12/12 00:44:11;;;;;;;50.70;29.77;;;;;;;1.56;84.28;99405.50;5039283;28;20409;-76
2020/12/12 00:46:37;;;;;;;55.67;28.90;;;;;;;1.78;83.04;99414.59;5038431;28;20428;-76
2020/12/12 00:49:04;;;;;;;43.17;26.43;;;;;;;1.63;83.49;99417.66;5038268;28;20460;-70
2020/12/12 00:51:30;;;;;;;47.20;28.80;;;;;;;1.72;83.13;99409.31;5039178;28;20264;-72
2020/12/12 00:53:55;;;;;;;53.13;29.93;;;;;;;1.67;83.71;99411.75;5038769;28;20527;-75
2020/12/12 00:56:21;;;;;;;57.33;31.60;;;;;;;1.66;83.27;99417.75;5038496;28;20171;-75
2020/12/12 00:58:46;;;;;;;57.77;30.27;;;;;;;1.56;83.52;99431.19;5038734;28;20483;-74
2020/12/12 01:01:12;;;;;;;53.43;30.40;;;;;;;1.30;84.75;99421.13;5038376;28;20166;-74
2020/12/12 01:03:39;;;;;;;54.00;31.13;;;;;;;1.48;84.36;99417.28;5038430;28;20583;-71
2020/12/12 01:06:09;;;;;;;59.20;28.50;;;;;;;1.50;84.18;99418.19;5038034;28;20673;-69
2020/12/12 01:08:34;;;;;;;54.27;29.90;;;;;;;1.21;85.08;99420.03;5038205;28;20481;-70
2020/12/12 01:11:00;;;;;;;58.87;27.73;;;;;;;1.31;84.54;99425.44;5038270;28;20428;-72
2020/12/12 01:13:25;;;;;;;55.23;30.20;;;;;;;1.33;84.92;99404.94;5038214;28;20450;-71
2020/12/12 01:15:51;;;;;;;54.43;28.40;;;;;;;1.31;84.18;99416.88;5038295;28;20170;-71
2020/12/12 01:18:16;;;;;;;48.10;27.67;;;;;;;1.36;84.08;99414.44;5038416;28;20170;-73
2020/12/12 01:20:42;;;;;;;58.53;30.10;;;;;;;1.42;83.87;99417.13;5038332;28;20170;-72
2020/12/12 01:23:07;;;;;;;47.67;27.60;;;;;;;1.30;84.43;99409.97;5037972;28;20181;-72
2020/12/12 01:25:37;;;;;;;59.13;32.43;;;;;;;1.47;84.03;99403.56;5037138;28;20546;-72
2020/12/12 01:28:04;;;;;;;55.27;29.80;;;;;;;1.53;82.99;99410.59;5028608;28;20185;-76
2020/12/12 01:30:29;;;;;;;54.30;29.87;;;;;;;1.36;84.29;99417.00;5028204;28;20430;-74
2020/12/12 01:32:55;;;;;;;52.60;28.70;;;;;;;1.28;84.04;99414.22;5022586;28;20461;-75
2020/12/12 01:35:20;;;;;;;53.97;29.87;;;;;;;1.26;84.60;99415.88;5018500;28;20225;-75
2020/12/12 01:37:46;;;;;;;57.23;30.40;;;;;;;1.39;83.88;99427.34;5018167;28;20185;-74
2020/12/12 01:40:11;;;;;;;51.43;29.87;;;;;;;1.50;83.26;99416.50;5018651;28;20198;-74
2020/12/12 01:42:37;;;;;;;50.90;28.53;;;;;;;1.37;83.79;99417.03;5018274;28;20199;-76
2020/12/12 01:45:06;;;;;;;53.03;30.33;;;;;;;1.36;84.32;99422.13;5018665;28;20466;-74
2020/12/12 01:47:32;;;;;;;51.67;29.23;;;;;;;1.33;83.91;99420.34;5018041;28;20163;-74
2020/12/12 01:49:57;;;;;;;53.37;29.77;;;;;;;1.34;84.33;99420.38;5018497;28;20865;-74
2020/12/12 01:52:22;;;;;;;56.90;31.80;;;;;;;1.47;83.86;99434.38;5018727;28;20224;-76
2020/12/12 01:54:48;;;;;;;56.07;29.97;;;;;;;1.55;83.36;99429.44;5017911;28;20482;-75
2020/12/12 01:57:18;;;;;;;52.57;28.87;;;;;;;1.21;84.09;99420.03;5018925;28;20182;-75
2020/12/12 01:59:43;;;;;;;57.23;31.20;;;;;;;1.24;84.49;99420.13;5017377;28;20175;-77
2020/12/12 02:02:10;;;;;;;49.50;28.23;;;;;;;1.40;83.29;99427.38;5018545;28;20430;-74
2020/12/12 02:04:37;;;;;;;50.30;28.10;;;;;;;1.42;83.75;99423.16;5018852;28;20245;-77
2020/12/12 02:07:03;;;;;;;51.60;28.70;;;;;;;1.37;83.47;99421.28;5018394;28;20695;-74
2020/12/12 02:09:28;;;;;;;56.87;29.47;;;;;;;1.29;83.81;99428.81;5018086;28;20449;-73
2020/12/12 02:11:53;;;;;;;48.97;27.57;;;;;;;1.30;83.73;99421.13;5018706;28;20423;-75
2020/12/12 02:14:18;;;;;;;48.83;28.40;;;;;;;1.27;83.60;99425.31;5017556;28;20312;-75
2020/12/12 02:20:05;;;;;;;54.90;33.47;;;;;;;1.36;83.71;99424.69;5016897;28;20437;-75
2020/12/12 02:22:30;;;;;;;51.70;29.27;;;;;;;1.24;84.13;99418.41;5026431;28;20221;-73
2020/12/12 02:24:56;;;;;;;44.87;30.00;;;;;;;1.36;83.67;99425.56;5036539;28;20222;-69
2020/12/12 02:27:21;;;;;;;52.43;31.63;;;;;;;1.47;83.25;99439.53;5037453;28;20476;-71
2020/12/12 02:29:50;;;;;;;47.00;23.53;;;;;;;1.30;83.83;99428.84;5037746;28;20280;-70
2020/12/12 02:32:16;;;;;;;46.50;27.63;;;;;;;1.46;83.61;99429.22;5037372;28;20190;-75
2020/12/12 02:34:42;;;;;;;53.80;30.10;;;;;;;1.55;82.84;99426.03;5036261;28;20436;-70
2020/12/12 02:37:07;;;;;;;52.80;27.83;;;;;;;1.50;83.14;99428.47;5037735;28;20166;-72
2020/12/12 02:39:32;;;;;;;46.77;28.60;;;;;;;1.32;83.33;99418.59;5035690;28;20439;-69
2020/12/12 02:41:58;;;;;;;46.47;27.13;;;;;;;1.25;83.87;99427.00;5037382;28;20182;-71
2020/12/12 02:44:24;;;;;;;49.73;28.53;;;;;;;1.48;82.82;99417.28;5037748;28;20233;-71
2020/12/12 02:46:49;;;;;;;46.30;30.20;;;;;;;1.42;83.34;99424.84;5037288;28;21131;-71
2020/12/12 02:49:14;;;;;;;48.00;29.73;;;;;;;1.40;83.37;99421.38;5037163;28;20228;-72
2020/12/12 02:51:40;;;;;;;50.00;28.10;;;;;;;1.25;83.13;99424.44;5037645;28;20258;-73
2020/12/12 02:54:06;;;;;;;59.83;30.47;;;;;;;1.20;84.32;99424.28;5037059;28;20166;-73
2020/12/12 02:56:31;;;;;;;47.50;28.40;;;;;;;1.40;83.47;99429.09;5037348;28;20417;-76
2020/12/12 02:58:56;;;;;;;50.47;28.30;;;;;;;1.33;83.48;99431.47;5035662;28;20166;-74
2020/12/12 03:01:22;;;;;;;51.83;29.53;;;;;;;1.52;82.55;99434.53;5036771;28;20170;-72
2020/12/12 03:03:47;;;;;;;49.57;30.20;;;;;;;1.44;83.04;99425.75;5036949;28;20536;-73
2020/12/12 03:06:13;;;;;;;53.77;29.33;;;;;;;1.09;83.67;99436.84;5037452;28;20216;-76
2020/12/12 03:08:38;;;;;;;49.23;29.93;;;;;;;1.16;83.88;99430.16;5036808;28;20229;-72
2020/12/12 03:11:03;;;;;;;50.83;27.40;;;;;;;1.34;83.41;99429.81;5036851;28;20170;-72
2020/12/12 03:13:28;;;;;;;49.93;28.53;;;;;;;1.29;83.68;99432.22;5035842;28;20193;-71
2020/12/12 03:15:54;;;;;;;46.47;28.33;;;;;;;1.33;83.29;99438.31;5034435;28;20327;-68
2020/12/12 03:18:19;;;;;;;59.13;29.30;;;;;;;1.11;84.27;99435.19;5036584;28;20174;-67
2020/12/12 03:20:44;;;;;;;50.37;31.33;;;;;;;1.43;83.58;99430.00;5037037;28;20574;-69
2020/12/12 03:23:11;;;;;;;56.90;31.90;;;;;;;1.32;83.53;99440.00;5036629;28;20189;-70
2020/12/12 03:25:37;;;;;;;49.47;27.57;;;;;;;1.21;84.08;99428.59;5036486;28;20187;-71
2020/12/12 03:28:02;;;;;;;53.53;29.40;;;;;;;1.35;83.20;99436.66;5037021;28;20820;-69
2020/12/12 03:30:28;;;;;;;51.23;28.13;;;;;;;1.03;84.38;99449.53;5036483;28;20202;-69
2020/12/12 03:32:53;;;;;;;50.50;30.57;;;;;;;1.24;84.09;99435.50;5036673;28;20273;-67
2020/12/12 03:35:18;;;;;;;54.70;30.37;;;;;;;1.44;83.18;99436.03;5037083;28;20166;-70
2020/12/12 03:37:43;;;;;;;49.40;27.53;;;;;;;1.49;82.48;99437.88;5036624;28;20558;-71
2020/12/12 03:40:09;;;;;;;52.77;29.10;;;;;;;1.08;83.72;99439.38;5036520;28;20176;-69
2020/12/12 03:42:34;;;;;;;47.20;28.03;;;;;;;1.16;83.83;99437.88;5037045;28;20567;-70
2020/12/12 03:44:59;;;;;;;47.47;26.20;;;;;;;0.99;84.52;99440.88;5036616;28;20543;-70
2020/12/12 03:47:25;;;;;;;58.50;29.00;;;;;;;0.92;84.74;99441.53;5036611;28;20253;-69
2020/12/12 03:49:50;;;;;;;48.10;29.67;;;;;;;1.15;84.05;99443.81;5036582;28;20213;-70
2020/12/12 03:52:15;;;;;;;50.73;28.63;;;;;;;0.98;84.15;99436.53;5036525;28;20170;-70
2020/12/12 03:54:41;;;;;;;50.63;30.70;;;;;;;1.03;84.41;99449.53;5036638;28;20570;-70
2020/12/12 03:57:07;;;;;;;45.70;28.00;;;;;;;1.01;84.49;99443.47;5036916;28;20418;-69
2020/12/12 03:59:33;;;;;;;59.00;30.43;;;;;;;1.06;84.32;99447.03;5036290;28;20548;-70
2020/12/12 04:01:58;;;;;;;52.57;29.43;;;;;;;1.11;84.06;99442.91;5036306;28;20423;-71
2020/12/12 04:04:24;;;;;;;56.27;29.87;;;;;;;1.19;83.84;99445.66;5036581;28;20549;-71
2020/12/12 04:06:49;;;;;;;50.40;30.13;;;;;;;1.31;83.04;99446.00;5036380;28;20197;-71
2020/12/12 04:09:14;;;;;;;41.80;24.50;;;;;;;0.92;84.28;99451.78;5036082;28;20288;-71
2020/12/12 04:11:39;;;;;;;38.17;20.57;;;;;;;7.91;83.51;99420.72;5036337;28;20179;-67
2020/12/12 04:14:05;;;;;;;46.83;29.47;;;;;;;4.25;70.92;99432.91;5036134;28;20547;-69
2020/12/12 04:16:30;;;;;;;54.07;30.67;;;;;;;1.63;80.37;99440.78;5036127;28;20177;-68
2020/12/12 04:18:55;;;;;;;52.47;31.33;;;;;;;1.58;81.25;99444.94;5036517;28;20403;-70
2020/12/12 04:21:21;;;;;;;49.10;27.60;;;;;;;1.36;81.80;99452.94;5036199;28;20177;-70
2020/12/12 04:23:46;;;;;;;49.57;26.97;;;;;;;1.37;83.14;99449.53;5039543;28;20226;-69
2020/12/12 04:26:11;;;;;;;54.93;30.63;;;;;;;1.26;84.05;99436.41;5040110;28;20166;-70
2020/12/12 04:28:38;;;;;;;51.17;28.97;;;;;;;1.44;84.12;99441.16;5039648;28;20194;-70
2020/12/12 04:31:03;;;;;;;57.80;31.40;;;;;;;1.40;82.96;99436.78;5039694;28;20252;-69
2020/12/12 04:33:28;;;;;;;47.90;27.40;;;;;;;1.49;82.14;99434.44;5039972;28;20508;-69
2020/12/12 04:35:54;;;;;;;50.30;29.70;;;;;;;1.28;82.75;99435.63;5039446;28;20177;-70
2020/12/12 04:38:20;;;;;;;56.97;32.47;;;;;;;1.17;84.05;99427.63;5039508;28;20186;-70
2020/12/12 04:40:46;;;;;;;47.80;27.03;;;;;;;0.90;84.81;99438.03;5039768;28;20205;-70
2020/12/12 04:43:12;;;;;;;57.37;29.30;;;;;;;1.16;84.31;99440.44;5039416;28;20428;-70
2020/12/12 04:45:39;;;;;;;53.40;29.87;;;;;;;1.04;84.26;99440.97;5038350;28;20458;-70
2020/12/12 04:48:04;;;;;;;57.07;31.30;;;;;;;1.12;84.35;99438.63;5032609;28;20288;-69
2020/12/12 04:50:29;;;;;;;57.50;30.30;;;;;;;1.49;85.30;99440.44;5023695;28;20552;-70
2020/12/12 04:52:57;;;;;;;54.77;28.87;;;;;;;1.22;84.57;99434.59;5036561;28;20197;-72
2020/12/12 04:55:24;;;;;;;55.93;30.60;;;;;;;1.15;83.93;99438.69;5039426;28;20170;-72
2020/12/12 04:57:51;;;;;;;56.43;30.40;;;;;;;1.21;84.09;99438.88;5039042;28;20421;-71
2020/12/12 05:00:17;;;;;;;56.10;30.53;;;;;;;1.44;84.75;99447.16;5038322;28;20778;-72
2020/12/12 05:02:42;;;;;;;65.37;33.23;;;;;;;1.38;83.62;99446.13;5039445;28;20417;-72
2020/12/12 05:05:08;;;;;;;53.83;30.70;;;;;;;1.18;83.60;99446.50;5039019;28;20171;-71
2020/12/12 05:07:34;;;;;;;55.07;29.43;;;;;;;0.96;84.54;99448.47;5039039;28;20441;-71
2020/12/12 05:10:00;;;;;;;56.57;28.50;;;;;;;0.94;85.60;99449.28;5038904;28;20272;-71
2020/12/12 05:12:25;;;;;;;60.13;27.17;;;;;;;0.94;84.97;99454.41;5038929;28;20421;-71
2020/12/12 05:14:51;;;;;;;61.53;31.80;;;;;;;1.16;84.69;99448.13;5038845;28;20413;-72
2020/12/12 05:17:19;;;;;;;53.93;30.20;;;;;;;0.87;85.46;99448.22;5039260;28;20166;-73
2020/12/12 05:19:50;;;;;;;57.93;30.70;;;;;;;1.09;84.09;99448.81;5038818;28;20822;-73
2020/12/12 05:22:17;;;;;;;54.27;30.60;;;;;;;1.20;85.09;99444.81;5038778;28;20421;-72
2020/12/12 05:24:43;;;;;;;61.00;31.47;;;;;;;1.04;84.04;99450.38;5038609;28;20465;-73
2020/12/12 05:27:09;;;;;;;63.97;32.03;;;;;;;1.32;83.98;99447.72;5038584;28;20405;-73
2020/12/12 05:29:34;;;;;;;61.57;29.87;;;;;;;1.08;84.32;99444.50;5038551;28;20991;-73
2020/12/12 05:31:59;;;;;;;57.83;31.60;;;;;;;1.15;83.67;99449.84;5037671;28;20174;-73
2020/12/12 05:34:26;;;;;;;58.00;28.07;;;;;;;0.80;85.52;99456.59;5038426;28;20171;-73
2020/12/12 05:36:51;;;;;;;53.27;29.87;;;;;;;1.09;85.09;99464.22;5038796;28;20254;-72
2020/12/12 05:39:17;;;;;;;58.50;29.60;;;;;;;1.01;84.72;99456.28;5038289;28;20509;-72
2020/12/12 05:41:43;;;;;;;57.33;29.97;;;;;;;0.96;84.82;99456.19;5038172;28;20170;-73
2020/12/12 05:44:09;;;;;;;55.17;31.20;;;;;;;1.01;84.46;99471.69;5038671;28;20176;-72
2020/12/12 05:46:35;;;;;;;56.50;30.07;;;;;;;0.88;85.84;99461.91;5038336;28;20519;-73
2020/12/12 05:49:03;;;;;;;59.33;31.57;;;;;;;1.19;85.24;99466.19;5037296;28;20256;-73
2020/12/12 05:51:29;;;;;;;51.57;28.47;;;;;;;1.08;84.78;99460.75;5038594;28;20413;-73
2020/12/12 05:53:55;;;;;;;43.37;26.50;;;;;;;0.86;85.34;99461.88;5037982;28;20420;-72
2020/12/12 05:56:22;;;;;;;53.03;28.50;;;;;;;1.07;85.61;99469.31;5037933;28;20413;-73
2020/12/12 05:58:48;;;;;;;53.30;29.50;;;;;;;0.97;84.88;99467.31;5037543;28;20212;-73
2020/12/12 06:01:22;;;;;;;52.70;29.97;;;;;;;0.91;85.07;99462.88;5037158;28;20420;-73
2020/12/12 06:04:10;;;;;;;55.83;27.90;;;;;;;1.03;85.06;99469.16;5037729;28;20576;-72
2020/12/12 06:06:46;;;;;;;45.17;23.93;;;;;;;0.76;86.32;99471.00;5037522;28;20429;-72
2020/12/12 06:09:14;;;;;;;58.03;31.63;;;;;;;0.97;85.42;99470.72;5037783;28;20476;-72
2020/12/12 06:11:41;;;;;;;56.00;33.10;;;;;;;1.17;85.39;99473.84;5037969;28;20852;-73
2020/12/12 06:14:06;;;;;;;58.40;30.83;;;;;;;1.21;84.28;99473.94;5037764;28;20504;-72
2020/12/12 06:16:33;;;;;;;56.97;30.40;;;;;;;1.11;84.81;99476.25;5038066;28;20414;-72
2020/12/12 06:19:13;;;;;;;47.87;21.83;;;;;;;0.88;85.14;99473.06;5037630;28;20645;-72
2020/12/12 06:21:43;;;;;;;49.00;26.10;;;;;;;0.76;84.88;99475.25;5037698;28;20689;-72
2020/12/12 06:24:10;;;;;;;50.83;28.40;;;;;;;1.00;85.65;99469.94;5037563;28;20531;-72
2020/12/12 06:26:39;;;;;;;62.23;32.60;;;;;;;1.02;84.93;99473.44;5037669;28;20479;-72
2020/12/12 06:29:05;;;;;;;64.17;32.53;;;;;;;1.38;85.42;99470.13;5036558;28;20727;-72
2020/12/12 06:31:37;;;;;;;55.33;30.93;;;;;;;1.24;83.77;99485.16;5036712;28;20444;-71
2020/12/12 06:34:03;;;;;;;59.07;33.37;;;;;;;1.11;85.07;99477.94;5036872;28;20293;-72
2020/12/12 06:36:30;;;;;;;57.43;31.43;;;;;;;1.18;84.93;99490.13;5037470;28;20764;-72
2020/12/12 06:39:15;;;;;;;51.60;30.50;;;;;;;0.90;85.78;99489.34;5037367;28;20201;-71
2020/12/12 06:41:40;;;;;;;55.70;30.00;;;;;;;1.28;85.07;99489.53;5037207;28;20440;-73
2020/12/12 06:44:06;;;;;;;57.90;30.50;;;;;;;1.27;85.15;99490.38;5036903;28;20417;-71
2020/12/12 06:46:51;;;;;;;53.60;30.80;;;;;;;1.08;85.67;99494.13;5036858;28;20249;-71
2020/12/12 06:49:16;;;;;;;54.23;27.47;;;;;;;1.14;85.07;99491.75;5037053;28;20209;-70
2020/12/12 06:51:42;;;;;;;51.13;29.37;;;;;;;1.13;84.69;99496.84;5036300;28;20416;-71
2020/12/12 06:54:08;;;;;;;55.77;28.93;;;;;;;0.77;86.46;99506.09;5037188;28;20260;-70
2020/12/12 06:56:33;;;;;;;63.60;32.53;;;;;;;0.95;85.87;99498.06;5037389;28;20304;-72
2020/12/12 06:59:32;;;;;;;61.80;31.20;;;;;;;0.97;86.26;99493.81;5036954;28;20878;-72
2020/12/12 07:01:58;;;;;;;45.73;26.67;;;;;;;0.95;86.11;99503.19;5036788;28;20202;-71
2020/12/12 07:04:30;;;;;;;61.87;28.07;;;;;;;1.20;85.30;99503.88;5036898;28;20419;-72
2020/12/12 07:06:59;;;;;;;59.27;29.60;;;;;;;1.28;84.63;99498.94;5036987;28;20437;-72
2020/12/12 07:09:26;;;;;;;52.30;29.40;;;;;;;1.00;85.49;99506.75;5036619;28;20514;-71
2020/12/12 07:11:52;;;;;;;57.30;31.60;;;;;;;1.36;85.44;99504.31;5036637;28;20484;-72
2020/12/12 07:14:20;;;;;;;53.87;25.20;;;;;;;0.97;85.01;99516.91;5037140;28;20416;-72
2020/12/12 07:16:45;;;;;;;57.47;30.03;;;;;;;1.20;84.80;99514.13;5036867;28;20194;-72
2020/12/12 07:19:11;;;;;;;52.63;29.67;;;;;;;1.38;84.50;99512.91;5036696;28;20460;-71
2020/12/12 07:21:39;;;;;;;60.43;35.03;;;;;;;1.31;84.61;99517.88;5037041;28;20261;-72
2020/12/12 07:24:05;;;;;;;60.37;33.47;;;;;;;1.11;86.15;99524.13;5036500;28;20226;-72
2020/12/12 07:26:31;;;;;;;54.73;29.80;;;;;;;1.11;85.35;99525.03;5036746;28;20892;-72
2020/12/12 07:28:56;;;;;;;60.00;31.53;;;;;;;1.28;85.31;99528.03;5036836;28;20194;-72
2020/12/12 07:31:21;;;;;;;61.53;32.17;;;;;;;1.38;84.80;99526.63;5036608;28;20174;-72
2020/12/12 07:33:47;;;;;;;54.70;30.83;;;;;;;1.33;86.08;99533.31;5036467;28;20258;-73
2020/12/12 07:36:12;;;;;;;59.77;32.97;;;;;;;1.34;84.86;99535.94;5036885;28;20184;-72
2020/12/12 07:38:41;;;;;;;56.60;30.83;;;;;;;1.22;84.97;99533.03;5036370;28;20193;-71
2020/12/12 07:41:17;;;;;;;68.00;35.30;;;;;;;1.17;86.36;99534.59;5036669;28;20166;-72
2020/12/12 07:43:50;;;;;;;58.53;30.80;;;;;;;1.14;86.04;99547.34;5035429;28;20435;-72
2020/12/12 07:46:16;;;;;;;51.83;27.60;;;;;;;1.15;86.04;99547.38;5035810;28;20665;-72
2020/12/12 07:48:41;;;;;;;54.17;30.07;;;;;;;1.12;86.78;99549.00;5036371;28;20456;-72
2020/12/12 07:51:14;;;;;;;58.80;30.07;;;;;;;0.99;86.80;99540.09;5036533;28;20183;-72
2020/12/12 07:53:39;;;;;;;68.23;31.53;;;;;;;1.21;86.93;99554.38;5036861;28;20166;-73
2020/12/12 07:56:05;;;;;;;57.33;31.80;;;;;;;0.99;86.56;99551.22;5036124;28;20474;-72
2020/12/12 07:58:32;;;;;;;56.57;32.33;;;;;;;1.05;86.15;99555.63;5039673;28;20288;-73
2020/12/12 08:01:01;;;;;;;58.97;32.50;;;;;;;1.16;85.71;99551.72;5040661;28;20409;-73
2020/12/12 08:03:26;;;;;;;57.50;31.80;;;;;;;1.20;85.98;99552.63;5040078;28;20491;-73
2020/12/12 08:06:08;;;;;;;54.63;32.80;;;;;;;1.10;85.38;99558.34;5040026;28;20750;-73
2020/12/12 08:08:34;;;;;;;62.27;30.60;;;;;;;1.13;86.60;99559.28;5039949;28;20432;-72
2020/12/12 08:11:00;;;;;;;52.80;28.80;;;;;;;1.09;85.68;99572.00;5040114;28;20440;-72
2020/12/12 08:13:27;;;;;;;69.97;34.50;;;;;;;1.25;85.25;99563.91;5040094;28;20484;-72
2020/12/12 08:16:21;;;;;;;53.47;31.10;;;;;;;1.22;85.24;99574.09;5039817;28;20413;-72
2020/12/12 08:18:46;;;;;;;54.77;30.03;;;;;;;1.32;85.39;99573.53;5039271;28;20412;-72
2020/12/12 08:21:14;;;;;;;57.87;33.17;;;;;;;1.46;84.78;99579.06;5039927;28;20424;-73
2020/12/12 08:23:40;;;;;;;60.90;33.20;;;;;;;1.50;84.13;99580.88;5039525;28;20645;-72
2020/12/12 08:26:07;;;;;;;56.87;31.53;;;;;;;1.45;84.35;99572.19;5038793;28;20417;-72
2020/12/12 08:28:33;;;;;;;63.40;32.00;;;;;;;1.56;84.22;99577.59;5039201;28;20405;-72
2020/12/12 08:31:15;;;;;;;55.87;31.97;;;;;;;1.61;83.55;99590.56;5039691;28;20463;-71
2020/12/12 08:33:41;;;;;;;67.70;33.67;;;;;;;1.19;85.32;99591.97;5039752;28;20412;-72
2020/12/12 08:36:19;;;;;;;60.13;32.40;;;;;;;1.39;84.73;99589.09;5039564;28;20996;-72
2020/12/12 08:38:55;;;;;;;53.27;31.10;;;;;;;1.36;84.58;99602.72;5039490;28;20436;-73
2020/12/12 08:41:21;;;;;;;56.50;30.60;;;;;;;1.42;84.59;99590.06;5039522;28;20435;-73
2020/12/12 08:43:46;;;;;;;58.33;33.00;;;;;;;1.46;84.38;99594.47;5039641;28;20427;-74
2020/12/12 08:46:16;;;;;;;53.20;31.03;;;;;;;1.31;84.69;99600.03;5039432;28;20409;-72
2020/12/12 08:48:42;;;;;;;61.33;33.67;;;;;;;1.41;84.65;99592.56;5039417;28;20244;-73
2020/12/12 08:51:08;;;;;;;53.43;32.27;;;;;;;1.48;84.77;99592.81;5039652;28;20765;-73
2020/12/12 08:53:35;;;;;;;53.57;32.73;;;;;;;1.45;85.71;99594.44;5039215;28;20470;-73
2020/12/12 08:56:10;;;;;;;57.33;32.57;;;;;;;1.51;85.36;99590.31;5038937;28;20405;-71
2020/12/12 08:58:53;;;;;;;59.13;32.90;;;;;;;1.60;85.55;99592.28;5039137;28;20430;-71
2020/12/12 09:01:20;;;;;;;57.90;33.20;;;;;;;1.37;86.29;99604.47;5037069;28;20830;-71
2020/12/12 09:04:00;;;;;;;62.03;32.97;;;;;;;1.29;85.95;99601.69;5029919;28;20937;-72
2020/12/12 09:06:29;;;;;;;62.57;35.57;;;;;;;1.71;85.56;99592.56;5029650;28;20491;-71
2020/12/12 09:09:07;;;;;;;60.40;34.10;;;;;;;1.66;85.91;99601.84;5028759;28;20918;-73
2020/12/12 09:11:32;;;;;;;61.73;32.57;;;;;;;1.50;85.98;99605.69;5033432;28;20516;-72
2020/12/12 09:13:59;;;;;;;52.87;29.77;;;;;;;1.37;85.83;99614.75;5038520;28;20509;-72
2020/12/12 09:16:25;;;;;;;60.97;31.57;;;;;;;1.65;86.02;99616.41;5039027;28;20170;-71
2020/12/12 09:18:51;;;;;;;58.33;33.27;;;;;;;1.73;85.21;99618.28;5038972;28;20434;-71
2020/12/12 09:21:16;;;;;;;58.77;33.63;;;;;;;1.87;84.49;99616.97;5038764;28;20409;-73
2020/12/12 09:23:41;;;;;;;58.57;31.70;;;;;;;1.94;84.50;99612.88;5038600;28;20464;-72
2020/12/12 09:26:08;;;;;;;56.10;32.83;;;;;;;1.95;83.61;99609.44;5038981;28;20170;-72
2020/12/12 09:28:33;;;;;;;63.17;31.77;;;;;;;1.42;85.37;99627.72;5038479;28;20253;-71
2020/12/12 09:30:59;;;;;;;65.53;35.30;;;;;;;2.02;85.15;99619.06;5038662;28;20429;-71
2020/12/12 09:33:24;;;;;;;57.17;33.37;;;;;;;1.87;83.54;99616.09;5038973;28;20174;-71
2020/12/12 09:35:50;;;;;;;59.10;34.30;;;;;;;1.77;83.44;99618.44;5038625;28;20166;-73
2020/12/12 09:38:15;;;;;;;55.70;30.73;;;;;;;1.63;83.67;99624.88;5028658;28;20401;-72
2020/12/12 09:40:43;;;;;;;52.77;31.47;;;;;;;1.75;83.28;99626.94;5019001;28;20297;-72
2020/12/12 09:43:08;;;;;;;51.67;33.03;;;;;;;1.97;82.33;99634.34;5018492;28;20254;-72
2020/12/12 09:45:33;;;;;;;61.13;31.43;;;;;;;1.70;82.81;99634.50;5018408;28;20509;-73
2020/12/12 09:47:59;;;;;;;51.03;29.63;;;;;;;1.89;82.97;99635.00;5018948;28;20170;-72
2020/12/12 09:50:33;;;;;;;51.10;31.20;;;;;;;1.94;82.28;99636.00;5018434;28;20482;-73
2020/12/12 09:53:00;;;;;;;51.67;32.17;;;;;;;1.79;82.87;99637.31;5018669;28;20448;-74
2020/12/12 09:55:25;;;;;;;53.07;32.30;;;;;;;1.61;83.23;99644.50;5021272;28;20504;-72
2020/12/12 09:57:50;;;;;;;60.50;32.50;;;;;;;1.75;84.54;99638.06;5038297;28;20910;-74
2020/12/12 10:00:16;;;;;;;56.63;32.57;;;;;;;1.80;83.40;99646.78;5036868;28;20186;-72
2020/12/12 10:02:42;;;;;;;53.27;31.40;;;;;;;1.62;83.24;99649.69;5032903;28;20175;-73
2020/12/12 10:05:07;;;;;;;54.33;31.33;;;;;;;1.81;83.62;99642.50;5018403;28;20167;-72
2020/12/12 10:07:32;;;;;;;51.20;32.67;;;;;;;1.71;84.79;99655.94;5023241;28;20861;-75
2020/12/12 10:09:58;;;;;;;54.50;32.70;;;;;;;1.73;83.59;99631.13;5027812;28;20205;-73
2020/12/12 10:12:23;;;;;;;54.33;31.03;;;;;;;1.75;83.66;99642.34;5025891;28;20521;-73
2020/12/12 10:14:49;;;;;;;51.80;30.03;;;;;;;1.54;83.18;99642.59;5027505;28;20200;-75
2020/12/12 10:17:14;;;;;;;59.43;31.90;;;;;;;1.67;83.01;99645.56;5027595;28;20210;-75
2020/12/12 10:19:39;;;;;;;57.23;33.53;;;;;;;1.59;83.69;99656.44;5025142;28;20547;-73
2020/12/12 10:22:04;;;;;;;54.37;30.63;;;;;;;1.59;83.63;99652.19;5027680;28;20170;-75
2020/12/12 10:24:30;;;;;;;64.23;33.80;;;;;;;1.71;83.05;99653.38;5022709;28;20218;-74
2020/12/12 10:26:55;;;;;;;54.57;31.30;;;;;;;1.71;83.05;99656.78;5018414;28;20190;-75
2020/12/12 10:29:20;;;;;;;51.87;28.77;;;;;;;1.64;82.28;99655.75;5025166;28;20236;-73
2020/12/12 10:31:46;;;;;;;54.07;32.20;;;;;;;1.57;82.86;99658.97;5037744;28;20194;-75
2020/12/12 10:34:11;;;;;;;37.97;24.40;;;;;;;1.47;83.77;99656.97;5037399;28;20190;-76
2020/12/12 10:36:37;;;;;;;53.80;30.20;;;;;;;1.49;83.28;99670.75;5034483;28;20178;-73
2020/12/12 10:39:02;;;;;;;50.70;29.63;;;;;;;1.74;83.34;99656.88;5026351;28;20175;-75
2020/12/12 10:41:31;;;;;;;52.77;31.00;;;;;;;1.75;82.86;99671.47;5025128;28;20421;-73
2020/12/12 10:43:57;;;;;;;60.60;30.70;;;;;;;2.04;81.82;99657.66;5025868;28;20174;-73
2020/12/12 10:46:22;;;;;;;51.20;30.50;;;;;;;1.92;81.57;99661.66;5017739;28;21106;-72
2020/12/12 10:48:48;;;;;;;55.97;31.63;;;;;;;1.74;82.58;99666.28;5017520;28;20252;-73
2020/12/12 10:51:16;;;;;;;58.93;31.37;;;;;;;1.80;82.42;99671.59;5017818;28;20171;-72
2020/12/12 10:53:42;;;;;;;52.27;31.90;;;;;;;1.81;82.44;99674.22;5017313;28;20190;-71
2020/12/12 10:56:07;;;;;;;47.30;29.10;;;;;;;1.73;82.91;99669.69;5032841;28;20421;-73
2020/12/12 10:58:32;;;;;;;51.53;33.80;;;;;;;1.91;82.29;99674.44;5035333;28;20162;-71
2020/12/12 11:00:58;;;;;;;46.30;28.00;;;;;;;1.95;81.23;99668.56;5035035;28;20209;-71
2020/12/12 11:03:23;;;;;;;53.33;31.00;;;;;;;2.21;81.66;99674.41;5035281;28;20573;-72
2020/12/12 11:05:48;;;;;;;50.77;29.87;;;;;;;2.05;81.71;99679.97;5036716;28;20170;-71
2020/12/12 11:08:14;;;;;;;52.17;31.40;;;;;;;2.08;81.54;99678.34;5034952;28;20315;-71
2020/12/12 11:10:39;;;;;;;50.53;30.73;;;;;;;2.02;81.78;99680.78;5035849;28;20549;-71
2020/12/12 11:13:05;;;;;;;48.73;29.87;;;;;;;2.22;81.10;99675.28;5020127;28;20179;-71
2020/12/12 11:15:30;;;;;;;51.90;32.63;;;;;;;2.01;81.94;99682.44;5026403;28;20540;-71
2020/12/12 11:17:55;;;;;;;53.90;31.70;;;;;;;2.30;81.34;99677.22;5024657;28;20571;-72
2020/12/12 11:20:21;;;;;;;55.90;31.27;;;;;;;2.11;81.08;99686.16;5025685;28;20241;-71
2020/12/12 11:22:46;;;;;;;50.47;29.23;;;;;;;2.19;80.33;99686.34;5025758;28;20185;-71
2020/12/12 11:25:12;;;;;;;46.37;30.73;;;;;;;2.27;81.07;99678.84;5024905;28;20222;-72